createdAt,value
2019-01-03T00:01:09.726Z,103168.58
2019-01-03T00:03:56.754Z,103164.67
2019-01-03T00:07:00.306Z,103170.20
2019-01-03T00:09:47.510Z,103167.98
2019-01-03T00:12:34.602Z,103167.77
2019-01-03T00:15:29.073Z,103164.70
2019-01-03T00:18:16.429Z,103158.47
2019-01-03T00:21:10.758Z,103154.56
2019-01-03T00:24:05.268Z,103154.45
2019-01-03T00:26:53.850Z,103159.55
2019-01-03T00:29:40.631Z,103164.85
2019-01-03T00:32:27.510Z,103167.14
2019-01-03T00:35:14.697Z,103166.52
2019-01-03T00:38:15.923Z,103157.73
2019-01-03T00:41:03.731Z,103155.02
2019-01-03T00:44:01.140Z,103150.89
2019-01-03T00:47:01.772Z,103158.07
2019-01-03T00:50:02.566Z,103159.25
2019-01-03T00:52:45.263Z,103160.28
2019-01-03T00:55:39.575Z,103170.86
2019-01-03T00:58:21.000Z,103166.55
2019-01-03T01:01:08.175Z,103169.64
2019-01-03T01:04:02.841Z,103172.24
2019-01-03T01:07:00.175Z,103174.48
2019-01-03T01:09:57.558Z,103182.09
2019-01-03T01:13:00.890Z,103185.13
2019-01-03T01:15:47.767Z,103180.50
2019-01-03T01:18:47.968Z,103173.41
2019-01-03T01:21:34.966Z,103173.63
2019-01-03T01:24:24.446Z,103178.13
2019-01-03T01:27:11.315Z,103182.03
2019-01-03T01:29:58.245Z,103177.90
2019-01-03T01:32:59.034Z,103188.31
2019-01-03T01:35:45.912Z,103180.42
2019-01-03T01:38:31.707Z,103186.41
2019-01-03T01:41:18.493Z,103199.23
2019-01-03T01:44:25.121Z,103205.13
2019-01-03T01:47:19.586Z,103212.84
2019-01-03T01:50:06.753Z,103221.83
2019-01-03T01:52:58.016Z,103211.36
2019-01-03T01:58:44.223Z,103211.58
2019-01-03T02:01:27.504Z,103213.36
2019-01-03T02:04:14.817Z,103210.17
2019-01-03T02:07:21.065Z,103214.95
2019-01-03T02:10:15.301Z,103209.33
2019-01-03T02:13:00.097Z,103206.93
2019-01-03T02:15:57.748Z,103208.71
2019-01-03T02:18:55.027Z,103204.52
2019-01-03T02:21:54.028Z,103205.03
2019-01-03T02:24:49.510Z,103203.34
2019-01-03T02:27:38.026Z,103194.23
2019-01-03T02:30:29.863Z,103196.32
2019-01-03T02:33:17.049Z,103195.92
2019-01-03T02:36:04.290Z,103207.53
2019-01-03T02:39:04.813Z,103213.81
2019-01-03T02:41:59.367Z,103215.31
2019-01-03T02:44:51.460Z,103215.70
2019-01-03T02:47:48.708Z,103213.70
2019-01-03T02:50:35.845Z,103214.88
2019-01-03T02:53:27.932Z,103206.28
2019-01-03T02:56:26.484Z,103202.49
2019-01-03T02:59:32.918Z,103191.77
2019-01-03T03:02:21.796Z,103193.58
2019-01-03T03:05:09.267Z,103189.05
2019-01-03T03:07:58.203Z,103197.05
2019-01-03T03:10:44.519Z,103197.25
2019-01-03T03:13:38.923Z,103205.23
2019-01-03T03:16:25.986Z,103197.41
2019-01-03T03:19:13.028Z,103194.14
2019-01-03T03:22:14.847Z,103195.84
2019-01-03T03:25:11.475Z,103181.75
2019-01-03T03:28:03.710Z,103186.95
2019-01-03T03:30:50.736Z,103183.36
2019-01-03T03:33:37.558Z,103175.95
2019-01-03T03:36:24.264Z,103179.14
2019-01-03T03:39:11.587Z,103184.03
2019-01-03T03:42:06.288Z,103174.41
2019-01-03T03:45:12.734Z,103173.50
2019-01-03T03:48:19.667Z,103178.08
2019-01-03T03:51:13.279Z,103180.37
2019-01-03T03:54:04.729Z,103184.78
2019-01-03T03:57:05.061Z,103176.97
2019-01-03T03:59:59.888Z,103170.97
2019-01-03T04:02:47.009Z,103168.65
2019-01-03T04:05:35.736Z,103178.59
2019-01-03T04:08:40.749Z,103181.87
2019-01-03T04:11:29.581Z,103178.67
2019-01-03T04:14:34.069Z,103175.55
2019-01-03T04:17:35.140Z,103189.88
2019-01-03T04:20:26.881Z,103189.80
2019-01-03T04:23:21.635Z,103147.86
2019-01-03T04:26:08.456Z,103204.20
2019-01-03T04:29:03.017Z,103195.59
2019-01-03T04:32:00.459Z,103180.45
2019-01-03T04:34:52.356Z,103189.72
2019-01-03T04:37:43.747Z,103035.16
2019-01-03T04:40:35.501Z,103206.41
2019-01-03T04:43:22.710Z,103199.39
2019-01-03T04:46:14.295Z,103204.20
2019-01-03T04:49:07.713Z,103201.79
2019-01-03T04:52:01.891Z,103200.48
2019-01-03T04:54:50.331Z,103197.38
2019-01-03T04:57:39.977Z,103198.00
2019-01-03T05:00:27.262Z,103199.42
2019-01-03T05:03:14.460Z,103200.73
2019-01-03T05:05:55.487Z,103209.64
2019-01-03T05:08:40.050Z,103217.77
2019-01-03T05:11:38.143Z,103207.67
2019-01-03T05:14:29.879Z,103215.28
2019-01-03T05:17:16.891Z,103215.08
2019-01-03T05:20:08.493Z,103214.80
2019-01-03T05:22:59.804Z,103217.80
2019-01-03T05:25:47.033Z,103236.34
2019-01-03T05:28:41.469Z,103223.94
2019-01-03T05:31:42.385Z,103237.44
2019-01-03T05:34:42.861Z,103232.03
2019-01-03T05:37:34.955Z,103240.15
2019-01-03T05:40:22.040Z,103244.67
2019-01-03T05:43:09.182Z,103236.35
2019-01-03T05:46:07.155Z,103237.26
2019-01-03T05:48:54.606Z,103239.47
2019-01-03T05:51:41.578Z,103248.58
2019-01-03T05:54:45.087Z,103249.28
2019-01-03T05:57:32.264Z,103252.28
2019-01-03T06:00:30.621Z,103257.59
2019-01-03T06:03:19.121Z,103265.39
2019-01-03T06:06:10.691Z,103268.78
2019-01-03T06:09:05.230Z,103274.20
2019-01-03T06:11:59.707Z,103265.39
2019-01-03T06:15:03.725Z,103281.80
2019-01-03T06:17:58.321Z,103299.15
2019-01-03T06:20:45.563Z,103300.63
2019-01-03T06:23:32.961Z,103296.73
2019-01-03T06:26:27.632Z,103291.22
2019-01-03T06:29:14.885Z,103294.25
2019-01-03T06:32:15.417Z,103293.52
2019-01-03T06:35:07.472Z,103287.33
2019-01-03T06:38:10.925Z,103296.83
2019-01-03T06:41:08.770Z,103292.62
2019-01-03T06:44:12.299Z,103306.25
2019-01-03T06:47:06.999Z,103301.52
2019-01-03T06:50:04.651Z,103298.14
2019-01-03T06:52:56.412Z,103297.31
2019-01-03T06:56:03.150Z,103300.13
2019-01-03T06:58:50.240Z,103306.94
2019-01-03T07:01:37.286Z,103297.41
2019-01-03T07:04:40.986Z,103311.63
2019-01-03T07:07:27.929Z,103309.54
2019-01-03T07:10:15.028Z,103305.84
2019-01-03T07:13:01.792Z,103304.84
2019-01-03T07:15:50.413Z,103303.72
2019-01-03T07:18:56.826Z,103317.45
2019-01-03T07:21:36.419Z,103329.47
2019-01-03T07:24:32.992Z,103337.78
2019-01-03T07:27:20.382Z,103346.50
2019-01-03T07:30:21.121Z,103350.80
2019-01-03T07:33:21.727Z,103355.00
2019-01-03T07:36:13.155Z,103366.11
2019-01-03T07:39:00.445Z,103366.90
2019-01-03T07:41:47.352Z,103358.78
2019-01-03T07:44:34.582Z,103360.81
2019-01-03T07:47:27.344Z,103372.52
2019-01-03T07:50:21.824Z,103365.70
2019-01-03T07:53:08.663Z,103381.81
2019-01-03T07:56:00.477Z,103373.39
2019-01-03T07:58:58.595Z,103375.30
2019-01-03T08:01:47.261Z,103371.90
2019-01-03T08:04:34.171Z,103370.11
2019-01-03T08:07:20.850Z,103371.72
2019-01-03T08:10:11.565Z,103375.81
2019-01-03T08:13:10.067Z,103365.59
2019-01-03T08:15:57.502Z,103376.80
2019-01-03T08:18:49.236Z,103369.71
2019-01-03T08:21:31.506Z,103381.73
2019-01-03T08:24:32.271Z,103386.20
2019-01-03T08:27:19.254Z,103390.72
2019-01-03T08:30:06.810Z,103393.23
2019-01-03T08:33:10.612Z,103385.33
2019-01-03T08:35:59.372Z,103381.42
2019-01-03T08:38:55.531Z,103396.95
2019-01-03T08:41:47.328Z,103392.63
2019-01-03T08:44:27.932Z,103406.24
2019-01-03T08:47:25.501Z,103417.66
2019-01-03T08:50:12.371Z,103420.77
2019-01-03T08:53:01.070Z,103437.95
2019-01-03T08:56:01.631Z,103443.37
2019-01-03T08:58:48.863Z,103444.98
2019-01-03T09:01:37.338Z,103441.16
2019-01-03T09:04:24.926Z,103443.16
2019-01-03T09:07:12.331Z,103458.98
2019-01-03T09:09:56.936Z,103455.48
2019-01-03T09:12:48.537Z,103459.59
2019-01-03T09:15:36.024Z,103451.30
2019-01-03T09:18:23.399Z,103449.22
2019-01-03T09:21:27.969Z,103452.73
2019-01-03T09:24:16.509Z,103446.80
2019-01-03T09:27:03.736Z,103448.19
2019-01-03T09:29:50.779Z,103448.52
2019-01-03T09:32:39.337Z,103436.98
2019-01-03T09:35:30.782Z,103425.27
2019-01-03T09:38:18.103Z,103422.16
2019-01-03T09:41:06.794Z,103420.86
2019-01-03T09:43:58.482Z,103423.64
2019-01-03T09:46:28.078Z,103426.85
2019-01-03T09:48:58.481Z,103430.97
2019-01-03T09:51:28.338Z,103432.57
2019-01-03T09:53:58.011Z,103437.69
2019-01-03T09:56:27.677Z,103438.78
2019-01-03T09:58:57.517Z,103442.28
2019-01-03T10:01:27.103Z,103441.77
2019-01-03T10:03:56.968Z,103441.16
2019-01-03T10:06:26.748Z,103446.98
2019-01-03T10:08:56.321Z,103443.37
2019-01-03T10:11:26.027Z,103442.25
2019-01-03T10:13:55.948Z,103443.28
2019-01-03T10:16:25.654Z,103313.76
2019-01-03T10:18:55.210Z,103439.08
2019-01-03T10:21:25.155Z,103436.71
2019-01-03T10:23:54.808Z,103432.99
2019-01-03T10:26:24.321Z,103436.59
2019-01-03T10:28:54.039Z,103430.59
2019-01-03T10:31:23.708Z,103431.51
2019-01-03T10:33:53.248Z,103428.69
2019-01-03T10:36:24.340Z,103425.77
2019-01-03T10:38:53.961Z,103425.50
2019-01-03T10:41:23.604Z,103420.78
2019-01-03T10:43:53.418Z,103423.38
2019-01-03T10:46:23.115Z,103424.88
2019-01-03T10:48:52.672Z,103428.61
2019-01-03T10:51:22.387Z,103428.98
2019-01-03T10:53:51.980Z,103431.59
2019-01-03T10:56:21.650Z,103435.02
2019-01-03T10:58:51.523Z,103269.02
2019-01-03T11:01:21.114Z,103429.77
2019-01-03T11:03:50.662Z,103423.35
2019-01-03T11:06:20.648Z,103433.36
2019-01-03T11:08:50.261Z,103429.03
2019-01-03T11:11:19.870Z,103431.83
2019-01-03T11:13:49.823Z,103431.02
2019-01-03T11:16:19.528Z,103428.33
2019-01-03T11:18:49.089Z,103427.50
2019-01-03T11:21:18.947Z,103429.80
2019-01-03T11:23:48.492Z,103424.30
2019-01-03T11:26:18.216Z,103420.28
2019-01-03T11:28:48.006Z,103424.47
2019-01-03T11:31:17.545Z,103419.96
2019-01-03T11:33:47.155Z,103417.05
2019-01-03T11:36:16.879Z,103415.73
2019-01-03T11:38:46.536Z,103407.91
2019-01-03T11:41:16.035Z,103404.40
2019-01-03T11:43:45.866Z,103407.00
2019-01-03T11:46:15.742Z,103404.40
2019-01-03T11:48:45.275Z,103407.99
2019-01-03T11:51:15.043Z,103394.95
2019-01-03T11:53:44.710Z,103394.52
2019-01-03T11:56:14.388Z,103389.90
2019-01-03T11:58:44.139Z,103379.47
2019-01-03T12:01:13.898Z,103387.30
2019-01-03T12:03:43.488Z,103382.08
2019-01-03T12:06:13.374Z,103384.69
2019-01-03T12:08:43.200Z,103389.11
2019-01-03T12:11:12.955Z,103383.97
2019-01-03T12:13:42.754Z,103381.28
2019-01-03T12:16:12.367Z,103385.70
2019-01-03T12:18:41.906Z,103375.27
2019-01-03T12:21:11.697Z,103369.16
2019-01-03T12:23:41.401Z,103348.68
2019-01-03T12:26:11.082Z,103338.56
2019-01-03T12:28:40.793Z,103336.44
2019-01-03T12:31:10.638Z,103332.23
2019-01-03T12:33:40.498Z,103339.94
2019-01-03T12:36:10.457Z,103352.79
2019-01-03T12:38:40.373Z,103344.13
2019-01-03T12:41:10.359Z,103337.33
2019-01-03T12:43:40.341Z,103332.70
2019-01-03T12:46:11.061Z,103337.79
2019-01-03T12:48:45.474Z,103340.92
2019-01-03T12:51:12.613Z,103333.09
2019-01-03T12:53:42.257Z,103336.19
2019-01-03T12:56:11.974Z,103340.20
2019-01-03T12:58:41.641Z,103336.61
2019-01-03T13:01:11.437Z,103332.27
2019-01-03T13:03:41.101Z,103331.34
2019-01-03T13:06:11.180Z,103326.12
2019-01-03T13:08:40.814Z,103328.23
2019-01-03T13:11:10.627Z,103338.19
2019-01-03T13:13:40.608Z,103335.26
2019-01-03T13:16:10.871Z,103334.62
2019-01-03T13:18:40.496Z,103343.47
2019-01-03T13:21:10.299Z,103344.45
2019-01-03T13:23:40.195Z,103341.52
2019-01-03T13:26:10.418Z,103344.13
2019-01-03T13:28:40.173Z,103334.28
2019-01-03T13:31:10.013Z,103323.31
2019-01-03T13:33:39.827Z,103337.67
2019-01-03T13:36:10.266Z,103333.83
2019-01-03T13:38:40.030Z,103331.14
2019-01-03T13:41:09.862Z,103339.31
2019-01-03T13:43:39.534Z,103332.84
2019-01-03T13:46:09.459Z,103331.03
2019-01-03T13:48:39.487Z,103321.60
2019-01-03T13:51:09.487Z,103322.59
2019-01-03T13:53:39.258Z,103335.71
2019-01-03T13:56:09.178Z,103329.58
2019-01-03T13:58:38.935Z,103329.52
2019-01-03T14:01:08.770Z,103321.31
2019-01-03T14:03:38.877Z,103310.53
2019-01-03T14:06:08.618Z,103303.56
2019-01-03T14:08:41.586Z,103303.75
2019-01-03T14:11:11.314Z,103311.91
2019-01-03T14:13:40.986Z,103312.36
2019-01-03T14:16:10.885Z,103320.39
2019-01-03T14:18:40.760Z,103310.99
2019-01-03T14:21:10.762Z,103309.69
2019-01-03T14:23:40.729Z,103319.92
2019-01-03T14:26:10.772Z,103314.84
2019-01-03T14:28:40.671Z,103316.58
2019-01-03T14:31:10.483Z,103311.17
2019-01-03T14:33:40.214Z,103312.80
2019-01-03T14:36:10.036Z,103309.31
2019-01-03T14:38:39.725Z,103316.27
2019-01-03T14:41:09.493Z,103308.06
2019-01-03T14:43:39.343Z,103315.09
2019-01-03T14:46:09.433Z,103321.09
2019-01-03T14:48:39.225Z,103311.09
2019-01-03T14:51:09.078Z,103311.09
2019-01-03T14:53:39.172Z,103307.50
2019-01-03T14:56:08.983Z,103306.39
2019-01-03T14:58:39.991Z,103310.34
2019-01-03T15:01:09.888Z,103312.63
2019-01-03T15:03:39.559Z,103310.96
2019-01-03T15:06:09.669Z,103311.28
2019-01-03T15:08:39.648Z,103313.45
2019-01-03T15:11:09.531Z,103307.87
2019-01-03T15:13:39.553Z,103318.30
2019-01-03T15:16:09.549Z,103310.67
2019-01-03T15:18:39.427Z,103307.27
2019-01-03T15:21:09.380Z,103314.80
2019-01-03T15:23:39.243Z,103311.72
2019-01-03T15:26:09.171Z,103305.38
2019-01-03T15:28:39.192Z,103303.91
2019-01-03T15:31:09.084Z,103312.62
2019-01-03T15:33:39.037Z,103305.14
2019-01-03T15:36:09.083Z,103310.33
2019-01-03T15:38:38.891Z,103307.25
2019-01-03T15:41:08.852Z,103302.42
2019-01-03T15:43:39.176Z,103124.08
2019-01-03T15:46:08.979Z,103299.64
2019-01-03T15:48:38.897Z,103298.03
2019-01-03T15:51:08.685Z,103297.72
2019-01-03T15:53:38.488Z,103291.42
2019-01-03T15:56:08.293Z,103280.02
2019-01-03T15:58:38.324Z,103284.81
2019-01-03T16:01:08.524Z,103285.44
2019-01-03T16:03:38.316Z,103287.41
2019-01-03T16:06:08.181Z,103289.53
2019-01-03T16:08:37.956Z,103298.74
2019-01-03T16:11:07.634Z,103302.44
2019-01-03T16:13:37.544Z,103306.03
2019-01-03T16:16:07.479Z,103299.22
2019-01-03T16:18:37.175Z,103296.83
2019-01-03T16:21:07.623Z,103293.44
2019-01-03T16:23:37.765Z,103289.93
2019-01-03T16:26:07.406Z,103290.22
2019-01-03T16:28:38.723Z,103289.81
2019-01-03T16:31:08.544Z,103288.91
2019-01-03T16:33:38.487Z,103278.41
2019-01-03T16:36:08.317Z,103284.71
2019-01-03T16:38:38.290Z,103291.22
2019-01-03T16:41:08.312Z,103278.91
2019-01-03T16:43:38.366Z,103282.42
2019-01-03T16:46:08.280Z,103277.13
2019-01-03T16:48:39.056Z,103278.03
2019-01-03T16:51:09.206Z,103281.73
2019-01-03T16:53:39.295Z,103287.41
2019-01-03T16:56:09.515Z,103277.31
2019-01-03T16:58:39.390Z,103273.19
2019-01-03T17:01:09.555Z,103262.98
2019-01-03T17:03:39.638Z,103263.98
2019-01-03T17:06:09.490Z,103264.97
2019-01-03T17:08:39.555Z,103261.27
2019-01-03T17:11:09.751Z,103267.16
2019-01-03T17:13:39.967Z,103267.58
2019-01-03T17:16:09.789Z,103271.78
2019-01-03T17:18:39.482Z,103281.02
2019-01-03T17:21:09.345Z,103275.52
2019-01-03T17:23:39.679Z,103270.72
2019-01-03T17:26:09.505Z,103265.00
2019-01-03T17:28:39.648Z,103265.70
2019-01-03T17:31:09.791Z,103267.40
2019-01-03T17:33:42.818Z,103256.30
2019-01-03T17:36:12.478Z,103256.61
2019-01-03T17:38:42.142Z,103254.59
2019-01-03T17:41:11.955Z,103237.78
2019-01-03T17:43:41.903Z,103231.80
2019-01-03T17:46:11.771Z,103238.81
2019-01-03T17:48:41.763Z,103221.19
2019-01-03T17:51:11.608Z,103216.80
2019-01-03T17:53:41.248Z,103223.00
2019-01-03T17:56:11.129Z,103220.40
2019-01-03T17:58:40.833Z,103220.48
2019-01-03T18:01:10.584Z,103214.28
2019-01-03T18:03:40.898Z,103210.80
2019-01-03T18:06:10.519Z,103200.18
2019-01-03T18:08:40.457Z,103202.30
2019-01-03T18:11:10.536Z,103188.78
2019-01-03T18:13:40.359Z,103184.78
2019-01-03T18:16:10.430Z,103180.40
2019-01-03T18:18:40.694Z,103173.67
2019-01-03T18:21:10.833Z,103159.59
2019-01-03T18:23:40.974Z,103158.18
2019-01-03T18:26:10.693Z,103145.89
2019-01-03T18:28:40.823Z,103145.59
2019-01-03T18:31:10.828Z,103144.29
2019-01-03T18:33:40.666Z,103147.78
2019-01-03T18:36:10.751Z,103158.28
2019-01-03T18:38:41.089Z,103143.38
2019-01-03T18:41:10.762Z,103138.17
2019-01-03T18:43:40.591Z,103138.66
2019-01-03T18:46:11.136Z,103121.74
2019-01-03T18:48:41.100Z,103120.95
2019-01-03T18:51:11.370Z,103108.94
2019-01-03T18:53:41.548Z,103112.84
2019-01-03T18:56:11.539Z,103103.54
2019-01-03T18:58:41.621Z,103094.75
2019-01-03T19:01:11.601Z,103100.63
2019-01-03T19:03:41.561Z,103100.77
2019-01-03T19:06:11.528Z,103096.36
2019-01-03T19:08:41.885Z,103099.24
2019-01-03T19:11:11.473Z,103086.02
2019-01-03T19:13:41.384Z,103085.61
2019-01-03T19:16:11.348Z,103081.09
2019-01-03T19:18:41.148Z,103079.67
2019-01-03T19:21:16.753Z,103071.98
2019-01-03T19:23:46.435Z,103067.77
2019-01-03T19:26:16.383Z,103078.45
2019-01-03T19:28:46.218Z,103067.41
2019-01-03T19:31:15.829Z,103064.22
2019-01-03T19:33:45.630Z,103057.08
2019-01-03T19:36:15.940Z,103061.77
2019-01-03T19:38:45.475Z,103058.84
2019-01-03T19:41:15.237Z,103055.72
2019-01-03T19:43:45.013Z,103054.23
2019-01-03T19:46:14.809Z,103065.86
2019-01-03T19:48:44.613Z,103070.95
2019-01-03T19:51:14.453Z,103067.88
2019-01-03T19:53:44.262Z,103049.42
2019-01-03T19:56:14.174Z,103046.10
2019-01-03T19:58:44.040Z,103031.91
2019-01-03T20:01:13.794Z,103029.42
2019-01-03T20:03:43.453Z,103028.83
2019-01-03T20:06:13.783Z,103024.92
2019-01-03T20:08:43.715Z,103025.80
2019-01-03T20:11:13.518Z,103010.48
2019-01-03T20:13:43.521Z,103024.67
2019-01-03T20:16:13.190Z,103020.45
2019-01-03T20:18:42.914Z,103022.80
2019-01-03T20:21:12.787Z,103022.16
2019-01-03T20:23:42.540Z,103003.73
2019-01-03T20:26:12.224Z,102998.19
2019-01-03T20:28:42.237Z,102997.36
2019-01-03T20:31:11.953Z,103001.64
2019-01-03T20:33:42.036Z,103004.64
2019-01-03T20:36:11.986Z,103006.53
2019-01-03T20:38:41.571Z,103006.33
2019-01-03T20:41:11.325Z,103000.87
2019-01-03T20:43:41.710Z,103008.79
2019-01-03T20:46:14.505Z,102992.27
2019-01-03T20:48:44.216Z,102981.84
2019-01-03T20:51:14.168Z,102981.02
2019-01-03T20:53:43.854Z,102980.55
2019-01-03T20:56:13.630Z,102971.77
2019-01-03T20:58:43.447Z,102972.17
2019-01-03T21:01:13.178Z,102969.89
2019-01-03T21:03:43.123Z,102964.61
2019-01-03T21:06:12.785Z,102962.27
2019-01-03T21:08:42.403Z,102960.96
2019-01-03T21:11:12.163Z,102958.87
2019-01-03T21:13:42.090Z,102956.41
2019-01-03T21:16:11.883Z,102956.92
2019-01-03T21:18:46.165Z,102956.41
2019-01-03T21:21:13.404Z,102956.20
2019-01-03T21:23:43.368Z,102955.54
2019-01-03T21:26:13.310Z,102946.45
2019-01-03T21:28:43.166Z,102942.22
2019-01-03T21:31:13.215Z,102939.11
2019-01-03T21:33:42.847Z,102938.31
2019-01-03T21:36:12.669Z,102926.09
2019-01-03T21:38:42.593Z,102922.12
2019-01-03T21:41:12.286Z,102918.39
2019-01-03T21:43:42.075Z,102913.77
2019-01-03T21:46:12.074Z,102743.67
2019-01-03T21:48:41.896Z,102732.56
2019-01-03T21:51:11.711Z,102909.41
2019-01-03T21:53:41.779Z,102901.03
2019-01-03T21:56:11.419Z,102901.67
2019-01-03T21:58:41.352Z,102895.81
2019-01-03T22:01:11.368Z,102895.13
2019-01-03T22:03:41.303Z,102891.02
2019-01-03T22:06:11.135Z,102893.44
2019-01-03T22:08:41.104Z,102880.11
2019-01-03T22:11:11.217Z,102871.97
2019-01-03T22:13:41.261Z,102866.45
2019-01-03T22:16:11.514Z,102857.34
2019-01-03T22:18:41.245Z,102848.22
2019-01-03T22:21:11.408Z,102842.20
2019-01-03T22:23:41.672Z,102833.48
2019-01-03T22:26:11.743Z,102821.27
2019-01-03T22:28:41.573Z,102815.55
2019-01-03T22:31:11.773Z,102814.44
2019-01-03T22:33:41.645Z,102812.34
2019-01-03T22:36:11.517Z,102807.34
2019-01-03T22:38:41.649Z,102801.56
2019-01-03T22:41:11.581Z,102797.19
2019-01-03T22:43:41.430Z,102786.42
2019-01-03T22:46:11.424Z,102775.32
2019-01-03T22:48:41.189Z,102780.15
2019-01-03T22:51:11.298Z,102767.57
2019-01-03T22:53:41.329Z,102773.67
2019-01-03T22:56:11.288Z,102773.64
2019-01-03T22:58:41.137Z,102774.02
2019-01-03T23:01:11.412Z,102773.62
2019-01-03T23:03:41.221Z,102775.86
2019-01-03T23:06:11.872Z,102778.61
2019-01-03T23:08:42.043Z,102779.26
2019-01-03T23:11:11.728Z,102795.95
2019-01-03T23:13:44.511Z,102784.89
2019-01-03T23:16:14.307Z,102780.30
2019-01-03T23:18:44.238Z,102770.86
2019-01-03T23:21:14.195Z,102760.78
2019-01-03T23:23:43.901Z,102746.61
2019-01-03T23:26:13.484Z,102743.83
2019-01-03T23:28:43.459Z,102738.09
2019-01-03T23:31:14.631Z,102742.91
2019-01-03T23:33:44.504Z,102746.62
2019-01-03T23:36:14.539Z,102732.09
2019-01-03T23:38:44.308Z,102729.98
2019-01-03T23:41:14.116Z,102722.36
2019-01-03T23:43:44.044Z,102727.49
2019-01-03T23:46:13.704Z,102718.67
2019-01-03T23:48:43.770Z,102726.05
2019-01-03T23:51:13.493Z,102723.13
2019-01-03T23:53:43.447Z,102716.70
2019-01-03T23:56:13.194Z,102719.23
2019-01-03T23:58:42.836Z,102706.12
